Latest Weather Observations for Melville Water

IDW60801

Issued at 1:02 pm WST Monday 25 May 2015 (issued every 30 minutes, with the page automatically refreshed every 10 minutes)

About weather observations | Map of weather stations | Latest weather observations for WA | Other Formats
Station Details ID: 009091 Name: INNER DOLPHIN PYLON Lat: -31.99 Lon: 115.83 Height: 0.0 m
Data from the previous 72 hours. | See also: Recent months for locations in Western Australia
Date/Time
WST
Temp
°C
App
Temp
°C
Dew
Point
Rel
Hum
%
Delta-T
°C
Wind Press
QNH
hPa
Press
MSL
hPa
Rain
since 9 am
mm
Dir
 
Spd
km/h
Gust
km/h
Spd
kts
Gust
kts
25/01:00pm - - - - - WSW 7 15 4 8 - - -
25/12:30pm - - - - - WSW 2 2 1 1 - - -
25/12:00pm - - - - - CALM 0 0 0 0 - - -
25/11:30am - - - - - CALM 0 0 0 0 - - -
25/11:00am - - - - - WSW 4 4 2 2 - - -
25/10:30am - - - - - WSW 2 4 1 2 - - -
25/10:00am - - - - - W 2 6 1 3 - - -
25/09:30am - - - - - CALM 0 0 0 0 - - -
25/09:00am - - - - - SW 2 6 1 3 - - -
25/08:30am - - - - - N 6 7 3 4 - - -
25/08:00am - - - - - SSW 4 6 2 3 - - -
25/07:30am - - - - - E 6 7 3 4 - - -
25/07:00am - - - - - E 4 6 2 3 - - -
25/06:30am - - - - - E 7 11 4 6 - - -
25/06:00am - - - - - ENE 9 11 5 6 - - -
25/05:30am - - - - - ESE 9 9 5 5 - - -
25/05:00am - - - - - ESE 13 17 7 9 - - -
25/04:30am - - - - - SE 9 11 5 6 - - -
25/04:00am - - - - - SE 4 6 2 3 - - -
25/03:30am - - - - - NW 2 4 1 2 - - -
25/03:00am - - - - - SSE 6 9 3 5 - - -
25/02:30am - - - - - SSE 7 11 4 6 - - -
25/02:00am - - - - - ESE 7 11 4 6 - - -
25/01:30am - - - - - SE 7 9 4 5 - - -
25/01:00am - - - - - SE 6 9 3 5 - - -
25/12:30am - - - - - SSE 6 9 3 5 - - -
25/12:00am - - - - - S 6 9 3 5 - - -
 
Date/Time
WST
Temp
°C
App
Temp
°C
Dew
Point
Rel
Hum
%
Delta-T
°C
Wind Press
QNH
hPa
Press
MSL
hPa
Rain
since 9 am
mm
Dir
 
Spd
km/h
Gust
km/h
Spd
kts
Gust
kts
24/11:30pm - - - - - SE 9 13 5 7 - - -
24/11:00pm - - - - - S 6 9 3 5 - - -
24/10:30pm - - - - - SSE 6 9 3 5 - - -
24/10:00pm - - - - - SSW 6 7 3 4 - - -
24/09:30pm - - - - - SSE 9 13 5 7 - - -
24/09:00pm - - - - - SSE 11 13 6 7 - - -
24/08:30pm - - - - - S 7 11 4 6 - - -
24/08:00pm - - - - - SW 2 6 1 3 - - -
24/07:30pm - - - - - S 6 7 3 4 - - -
24/07:00pm - - - - - SSW 6 7 3 4 - - -
24/06:30pm - - - - - SW 6 7 3 4 - - -
24/06:00pm - - - - - SW 11 13 6 7 - - -
24/05:30pm - - - - - SW 13 15 7 8 - - -
24/05:00pm - - - - - SW 13 15 7 8 - - -
24/04:30pm - - - - - SW 15 19 8 10 - - -
24/04:00pm - - - - - SW 9 11 5 6 - - -
24/03:30pm - - - - - WSW 9 11 5 6 - - -
24/03:00pm - - - - - WSW 9 11 5 6 - - -
24/02:30pm - - - - - WSW 9 17 5 9 - - -
24/02:00pm - - - - - WSW 6 11 3 6 - - -
24/01:30pm - - - - - WSW 4 6 2 3 - - -
24/01:00pm - - - - - WSW 6 7 3 4 - - -
24/12:30pm - - - - - WSW 4 6 2 3 - - -
24/12:00pm - - - - - WSW 2 4 1 2 - - -
24/11:30am - - - - - SSE 6 7 3 4 - - -
24/11:00am - - - - - SW 2 6 1 3 - - -
24/10:30am - - - - - SW 2 7 1 4 - - -
24/10:00am - - - - - SSW 4 6 2 3 - - -
24/09:30am - - - - - SW 2 4 1 2 - - -
24/09:00am - - - - - WSW 4 6 2 3 - - -
24/08:30am - - - - - S 6 7 3 4 - - -
24/08:00am - - - - - WSW 4 4 2 2 - - -
24/07:30am - - - - - SSW 9 13 5 7 - - -
24/07:00am - - - - - SSW 2 7 1 4 - - -
24/06:30am - - - - - SSE 9 13 5 7 - - -
24/06:00am - - - - - SE 9 11 5 6 - - -
24/05:30am - - - - - SSE 11 13 6 7 - - -
24/05:00am - - - - - SE 13 17 7 9 - - -
24/04:30am - - - - - SE 11 15 6 8 - - -
24/04:00am - - - - - SE 9 11 5 6 - - -
24/03:30am - - - - - SE 11 13 6 7 - - -
24/03:00am - - - - - ESE 9 11 5 6 - - -
24/02:30am - - - - - SE 9 11 5 6 - - -
24/02:00am - - - - - ESE 7 9 4 5 - - -
24/01:30am - - - - - ESE 7 9 4 5 - - -
24/01:00am - - - - - SSE 11 15 6 8 - - -
24/12:30am - - - - - SSW 11 15 6 8 - - -
24/12:00am - - - - - S 11 15 6 8 - - -
 
Date/Time
WST
Temp
°C
App
Temp
°C
Dew
Point
Rel
Hum
%
Delta-T
°C
Wind Press
QNH
hPa
Press
MSL
hPa
Rain
since 9 am
mm
Dir
 
Spd
km/h
Gust
km/h
Spd
kts
Gust
kts
23/11:30pm - - - - - SSW 9 11 5 6 - - -
23/11:00pm - - - - - SSW 7 9 4 5 - - -
23/10:30pm - - - - - SW 9 9 5 5 - - -
23/10:00pm - - - - - SW 7 7 4 4 - - -
23/09:30pm - - - - - SSW 4 6 2 3 - - -
23/09:00pm - - - - - S 2 4 1 2 - - -
23/08:30pm - - - - - S 4 6 2 3 - - -
23/08:00pm - - - - - SSE 9 13 5 7 - - -
23/07:30pm - - - - - SSW 2 6 1 3 - - -
23/07:00pm - - - - - S 11 17 6 9 - - -
23/06:30pm - - - - - SSW 22 28 12 15 - - -
23/06:00pm - - - - - SSW 24 37 13 20 - - -
23/05:30pm - - - - - SSW 13 17 7 9 - - -
23/05:00pm - - - - - SW 11 17 6 9 - - -
23/04:30pm - - - - - WSW 11 15 6 8 - - -
23/04:00pm - - - - - WSW 13 17 7 9 - - -
23/03:30pm - - - - - WSW 13 19 7 10 - - -
23/03:00pm - - - - - WSW 17 19 9 10 - - -
23/02:30pm - - - - - SW 19 26 10 14 - - -
23/02:00pm - - - - - WSW 17 28 9 15 - - -
23/01:30pm - - - - - W 13 22 7 12 - - -
23/01:00pm - - - - - WSW 11 19 6 10 - - -
23/12:30pm - - - - - SW 4 7 2 4 - - -
23/12:00pm - - - - - SW 2 6 1 3 - - -
23/11:30am - - - - - CALM 0 2 0 1 - - -
23/11:00am - - - - - CALM 0 2 0 1 - - -
23/10:30am - - - - - WSW 2 2 1 1 - - -
23/10:00am - - - - - WSW 4 4 2 2 - - -
23/09:30am - - - - - ENE 4 6 2 3 - - -
23/09:00am - - - - - WNW 4 7 2 4 - - -
23/08:30am - - - - - W 4 6 2 3 - - -
23/08:00am - - - - - NE 2 6 1 3 - - -
23/07:30am - - - - - ENE 4 7 2 4 - - -
23/07:00am - - - - - ESE 6 6 3 3 - - -
23/06:30am - - - - - ENE 4 6 2 3 - - -
23/06:00am - - - - - E 6 9 3 5 - - -
23/05:30am - - - - - E 6 7 3 4 - - -
23/05:00am - - - - - E 7 9 4 5 - - -
23/04:30am - - - - - E 7 7 4 4 - - -
23/04:00am - - - - - ENE 6 6 3 3 - - -
23/03:30am - - - - - ENE 4 6 2 3 - - -
23/03:00am - - - - - E 6 7 3 4 - - -
23/02:30am - - - - - NNE 2 4 1 2 - - -
23/02:00am - - - - - E 4 6 2 3 - - -
23/01:30am - - - - - ESE 4 6 2 3 - - -
23/01:00am - - - - - SE 4 6 2 3 - - -
23/12:30am - - - - - SSE 6 6 3 3 - - -
23/12:00am - - - - - SSE 6 6 3 3 - - -
 
Date/Time
WST
Temp
°C
App
Temp
°C
Dew
Point
Rel
Hum
%
Delta-T
°C
Wind Press
QNH
hPa
Press
MSL
hPa
Rain
since 9 am
mm
Dir
 
Spd
km/h
Gust
km/h
Spd
kts
Gust
kts
22/11:30pm - - - - - S 7 7 4 4 - - -
22/11:00pm - - - - - CALM 0 4 0 2 - - -
22/10:30pm - - - - - CALM 0 4 0 2 - - -
22/10:00pm - - - - - S 2 4 1 2 - - -
22/09:30pm - - - - - SSW 2 4 1 2 - - -
22/09:00pm - - - - - SSE 2 4 1 2 - - -
22/08:30pm - - - - - SE 2 4 1 2 - - -
22/08:00pm - - - - - SE 6 6 3 3 - - -
22/07:30pm - - - - - E 4 6 2 3 - - -
22/07:00pm - - - - - WSW 2 4 1 2 - - -
22/06:30pm - - - - - SW 9 11 5 6 - - -
22/06:00pm - - - - - SW 13 17 7 9 - - -
22/05:30pm - - - - - SW 15 19 8 10 - - -
22/05:00pm - - - - - SSW 15 19 8 10 - - -
22/04:30pm - - - - - SW 13 15 7 8 - - -
22/04:00pm - - - - - WSW 11 15 6 8 - - -
22/03:30pm - - - - - SW 13 15 7 8 - - -
22/03:00pm - - - - - WSW 6 7 3 4 - - -
22/02:30pm - - - - - NE 4 7 2 4 - - -
22/02:00pm - - - - - W 2 4 1 2 - - -
22/01:30pm - - - - - SW 4 6 2 3 - - -

Other Formats:

Comma delimited format used in spreadsheet applications
http://www.bom.gov.au/fwo/IDW60801/IDW60801.95620.axf

JavaScript Object Notation format (JSON) in row-major order
http://www.bom.gov.au/fwo/IDW60801/IDW60801.95620.json